Time;durP1;ratioP1;P1;durP2;ratioP2;P2;SDS_P1;SDS_P2;PMS_P1;PMS_P2;Temp;Humidity;BMP_temperature;BMP_pressure;BME280_temperature;BME280_humidity;BME280_pressure;Samples;Min_cycle;Max_cycle;Signal;HPM_P1;HPM_P2
2022/02/04 00:09:44;;;;;;;19.08;8.75;;;7.90;99.90;;;;;;4991500;28;20097;-65
2022/02/04 00:27:48;;;;;;;16.35;7.68;;;7.90;99.90;;;;;;4991917;28;20034;-66
2022/02/04 00:30:23;;;;;;;19.10;7.95;;;7.90;99.90;;;;;;4997783;28;20042;-66
2022/02/04 00:32:50;;;;;;;15.68;7.70;;;7.90;99.90;;;;;;4991866;28;20081;-66
2022/02/04 00:38:06;;;;;;;15.05;7.43;;;7.90;99.90;;;;;;4992009;28;20085;-65
2022/02/04 00:40:37;;;;;;;15.05;7.07;;;7.90;99.90;;;;;;4989959;28;20058;-69
2022/02/04 00:43:06;;;;;;;;;;;7.90;99.90;;;;;;4977139;28;20150;-69
2022/02/04 00:46:01;;;;;;;17.20;7.00;;;7.90;99.90;;;;;;4991443;28;20297;-69
2022/02/04 01:26:04;;;;;;;12.18;5.75;;;7.90;99.90;;;;;;4989989;28;20132;-72
2022/02/04 01:28:32;;;;;;;14.20;6.75;;;7.90;99.90;;;;;;4989098;28;20022;-70
2022/02/04 01:30:57;;;;;;;14.70;6.00;;;7.80;99.90;;;;;;4989859;28;20035;-69
2022/02/04 01:33:24;;;;;;;11.50;5.95;;;7.90;99.90;;;;;;4990567;28;20049;-69
2022/02/04 01:35:50;;;;;;;11.65;5.68;;;7.90;99.90;;;;;;4991245;28;20086;-68
2022/02/04 01:38:16;;;;;;;13.18;5.40;;;7.80;99.90;;;;;;4990381;28;20426;-67
2022/02/04 01:40:42;;;;;;;14.65;6.00;;;7.80;99.90;;;;;;4989763;28;20034;-67
2022/02/04 01:43:07;;;;;;;11.55;5.13;;;7.90;99.90;;;;;;4992005;28;20042;-65
2022/02/04 01:45:33;;;;;;;12.90;5.80;;;7.90;99.90;;;;;;4973497;28;20052;-69
2022/02/04 01:47:59;;;;;;;11.60;5.65;;;7.90;99.90;;;;;;4996658;28;20046;-69
2022/02/04 01:50:27;;;;;;;11.82;5.75;;;7.90;99.90;;;;;;4971338;28;20042;-64
2022/02/04 01:52:58;;;;;;;9.88;5.38;;;7.90;99.90;;;;;;4972252;28;20034;-68
2022/02/04 01:55:24;;;;;;;11.27;5.18;;;7.90;99.90;;;;;;4971704;28;20148;-69
2022/02/04 01:57:50;;;;;;;11.10;5.70;;;7.90;99.90;;;;;;4989746;28;20129;-68
2022/02/04 02:00:16;;;;;;;12.82;5.80;;;7.90;99.90;;;;;;5003406;23;20030;-60
2022/02/04 02:02:41;;;;;;;11.88;5.05;;;7.80;99.90;;;;;;5005928;28;20026;-62
2022/02/04 02:05:07;;;;;;;17.55;5.80;;;7.80;99.90;;;;;;5003765;28;20417;-63
2022/02/04 02:07:40;;;;;;;14.07;5.00;;;7.80;99.90;;;;;;5006297;28;20058;-63
2022/02/04 02:10:10;;;;;;;13.18;5.72;;;7.90;99.90;;;;;;5002619;28;20046;-63
2022/02/04 02:13:31;;;;;;;9.32;5.13;;;7.80;99.90;;;;;;5005646;28;20040;-61
2022/02/04 02:43:50;;;;;;;12.07;4.35;;;7.90;99.90;;;;;;5007029;28;20044;-62
2022/02/04 02:58:29;;;;;;;8.15;3.63;;;7.90;99.90;;;;;;4997834;28;20038;-62
2022/02/04 03:01:13;;;;;;;10.05;3.70;;;8.00;99.90;;;;;;5005868;28;20033;-62
2022/02/04 03:03:38;;;;;;;8.90;3.97;;;8.00;99.90;;;;;;5004062;28;20033;-63
2022/02/04 03:06:06;;;;;;;10.77;3.38;;;7.90;99.90;;;;;;5002642;28;20041;-62
2022/02/04 03:08:31;;;;;;;8.00;3.30;;;7.90;99.90;;;;;;5004638;28;20115;-63
2022/02/04 03:10:58;;;;;;;11.27;3.80;;;7.90;99.90;;;;;;5000870;28;20081;-61
2022/02/04 03:13:25;;;;;;;10.48;4.13;;;7.90;99.90;;;;;;5002774;28;20044;-63
2022/02/04 03:15:59;;;;;;;7.13;4.30;;;7.90;99.90;;;;;;5001682;28;20516;-63
2022/02/04 03:18:27;;;;;;;9.02;3.88;;;7.90;99.90;;;;;;5000290;28;20034;-62
2022/02/04 03:20:57;;;;;;;10.57;3.55;;;7.90;99.90;;;;;;5001147;28;20038;-60
2022/02/04 03:23:24;;;;;;;11.35;3.20;;;8.00;99.90;;;;;;5003564;28;20702;-66
2022/02/04 03:25:54;;;;;;;7.50;3.55;;;8.00;99.90;;;;;;5001908;28;20038;-61
2022/02/04 03:28:25;;;;;;;8.45;4.13;;;7.90;99.90;;;;;;5003130;28;20030;-62
2022/02/04 03:30:53;;;;;;;8.60;3.40;;;7.90;99.90;;;;;;4999661;28;20516;-62
2022/02/04 03:33:21;;;;;;;8.95;3.28;;;7.90;99.90;;;;;;5003073;28;20069;-63
2022/02/04 03:35:47;;;;;;;6.43;3.08;;;7.90;99.90;;;;;;5002147;28;20041;-64
2022/02/04 03:38:13;;;;;;;11.98;3.50;;;7.90;99.90;;;;;;5002840;28;20026;-61
2022/02/04 03:40:38;;;;;;;7.32;3.15;;;7.90;99.90;;;;;;5003534;28;20034;-62
2022/02/04 03:43:04;;;;;;;5.95;2.97;;;7.90;99.90;;;;;;5005245;28;20475;-61
2022/02/04 03:45:29;;;;;;;5.53;2.92;;;7.90;99.90;;;;;;5000674;28;20044;-62
2022/02/04 03:47:55;;;;;;;7.50;3.47;;;7.80;99.90;;;;;;5001063;28;20412;-63
2022/02/04 03:50:21;;;;;;;11.20;3.38;;;7.90;99.90;;;;;;5002097;28;20061;-61
2022/02/04 03:52:47;;;;;;;8.82;3.55;;;7.80;99.90;;;;;;5002039;28;20041;-61
2022/02/04 03:55:13;;;;;;;7.88;3.90;;;7.80;99.90;;;;;;5002877;28;20486;-61
2022/02/04 03:57:39;;;;;;;14.35;3.80;;;7.80;99.90;;;;;;5002697;28;20034;-62
2022/02/04 04:00:07;;;;;;;6.53;2.75;;;7.80;99.90;;;;;;5001829;28;20026;-61
2022/02/04 04:02:33;;;;;;;6.75;3.25;;;7.80;99.90;;;;;;5003203;28;20042;-62
2022/02/04 04:04:58;;;;;;;7.85;2.60;;;7.90;99.90;;;;;;5001177;28;20110;-64
2022/02/04 04:07:24;;;;;;;7.50;2.70;;;7.90;99.90;;;;;;5004488;28;20401;-61
2022/02/04 04:09:56;;;;;;;11.82;3.83;;;7.80;99.90;;;;;;5003794;28;20042;-60
2022/02/04 04:12:23;;;;;;;6.38;2.97;;;7.80;99.90;;;;;;4996912;28;20506;-62
2022/02/04 04:14:53;;;;;;;14.00;3.92;;;7.80;99.90;;;;;;5003969;28;20085;-62
2022/02/04 04:17:18;;;;;;;7.55;2.95;;;7.80;99.90;;;;;;5001040;28;20080;-61
2022/02/04 04:19:44;;;;;;;8.18;3.70;;;7.90;99.90;;;;;;5001996;28;20030;-62
2022/02/04 04:22:09;;;;;;;6.72;2.63;;;7.90;99.90;;;;;;5000377;28;20153;-61
2022/02/04 04:24:35;;;;;;;5.07;2.40;;;7.90;99.90;;;;;;5002317;28;20035;-61
2022/02/04 04:27:01;;;;;;;5.40;2.47;;;7.90;99.90;;;;;;5002363;28;20117;-61
2022/02/04 04:29:26;;;;;;;4.32;2.35;;;7.90;99.90;;;;;;5001200;28;20030;-62
2022/02/04 04:31:52;;;;;;;7.75;3.05;;;8.00;99.90;;;;;;5004617;28;20573;-62
2022/02/04 04:34:17;;;;;;;8.45;2.80;;;8.00;99.90;;;;;;5000903;28;20034;-61
2022/02/04 04:36:43;;;;;;;8.02;2.45;;;7.90;99.90;;;;;;5002831;28;20030;-62
2022/02/04 04:39:17;;;;;;;5.85;2.20;;;7.90;99.90;;;;;;5001889;28;20605;-62
2022/02/04 05:28:15;;;;;;;5.47;1.65;;;7.90;99.90;;;;;;5001090;28;20516;-66
2022/02/04 05:30:41;;;;;;;5.20;1.38;;;7.90;99.90;;;;;;5003798;28;20041;-62
2022/02/04 05:33:06;;;;;;;4.93;1.70;;;7.90;99.90;;;;;;5000425;28;20038;-62
2022/02/04 05:35:32;;;;;;;16.02;2.03;;;7.90;99.90;;;;;;5002315;28;20053;-61
2022/02/04 05:37:58;;;;;;;5.38;1.10;;;7.90;99.90;;;;;;5007174;28;20042;-62
2022/02/04 05:40:28;;;;;;;6.13;1.88;;;7.90;99.90;;;;;;5007787;28;20033;-61
2022/02/04 05:42:59;;;;;;;3.53;1.55;;;7.90;99.90;;;;;;5010602;28;20505;-61
2022/02/04 05:45:30;;;;;;;11.85;2.38;;;7.90;99.90;;;;;;5006791;28;20049;-63
2022/02/04 05:47:59;;;;;;;4.47;1.10;;;7.90;99.90;;;;;;5008285;28;20088;-61
2022/02/04 05:50:37;;;;;;;3.23;1.27;;;7.90;99.90;;;;;;5005451;28;20031;-64
2022/02/04 06:00:47;;;;;;;4.63;1.00;;;7.90;99.90;;;;;;5008055;28;20109;-63
2022/02/04 06:03:36;;;;;;;6.18;1.27;;;7.90;99.90;;;;;;5004759;28;20030;-62
2022/02/04 06:09:20;;;;;;;4.78;1.00;;;7.90;99.90;;;;;;5008036;28;20124;-63
2022/02/04 06:22:19;;;;;;;4.80;1.42;;;7.90;99.90;;;;;;5002790;28;20053;-64
2022/02/04 06:24:46;;;;;;;6.63;1.30;;;7.90;99.90;;;;;;5001924;28;20224;-61
2022/02/04 06:27:12;;;;;;;5.18;1.50;;;7.90;99.90;;;;;;5008083;28;20107;-62
2022/02/04 06:29:38;;;;;;;3.58;1.55;;;7.90;99.90;;;;;;5005405;28;20166;-62
2022/02/04 06:32:04;;;;;;;8.48;1.60;;;7.90;99.90;;;;;;5007857;28;20035;-62
2022/02/04 06:34:29;;;;;;;2.63;1.20;;;7.90;99.90;;;;;;5007217;28;20725;-62
2022/02/04 06:36:55;;;;;;;3.55;1.80;;;8.00;99.90;;;;;;5007272;28;20513;-61
2022/02/04 06:39:21;;;;;;;4.53;1.40;;;8.00;99.90;;;;;;5008419;28;20048;-61
2022/02/04 06:41:46;;;;;;;4.22;1.77;;;8.00;99.90;;;;;;5009003;28;20065;-62
2022/02/04 06:44:12;;;;;;;5.25;1.42;;;8.00;99.90;;;;;;5009142;28;20084;-61
2022/02/04 06:46:39;;;;;;;4.07;1.40;;;8.10;99.90;;;;;;5005931;28;20395;-62
2022/02/04 06:49:05;;;;;;;6.50;1.50;;;8.10;99.90;;;;;;5004465;28;20073;-62
2022/02/04 06:51:30;;;;;;;4.93;1.42;;;8.10;99.90;;;;;;5003635;28;20038;-61
2022/02/04 06:53:56;;;;;;;8.13;1.38;;;8.20;99.90;;;;;;5003695;28;20053;-63
2022/02/04 06:56:23;;;;;;;3.53;1.40;;;8.20;99.90;;;;;;5003187;28;20041;-62
2022/02/04 06:58:48;;;;;;;3.55;1.92;;;8.10;99.90;;;;;;5002402;28;20042;-64
2022/02/04 07:01:14;;;;;;;6.30;2.20;;;8.20;99.90;;;;;;5005680;28;20069;-63
2022/02/04 07:03:39;;;;;;;3.40;1.42;;;8.20;99.90;;;;;;5004224;28;20128;-62
2022/02/04 07:06:06;;;;;;;3.70;1.88;;;8.20;99.90;;;;;;5003034;28;20049;-63
2022/02/04 07:09:07;;;;;;;5.65;1.50;;;8.20;99.90;;;;;;5003910;28;20026;-61
2022/02/04 07:14:18;;;;;;;7.00;1.85;;;8.20;99.90;;;;;;5005256;28;20092;-61
2022/02/04 07:17:32;;;;;;;4.90;2.05;;;8.20;99.90;;;;;;5004757;28;20413;-63
2022/02/04 07:19:46;;;;;;;3.58;2.05;;;8.20;99.90;;;;;;5002122;28;20030;-62
2022/02/04 07:22:16;;;;;;;8.05;2.33;;;8.20;99.90;;;;;;4997320;28;20383;-64
2022/02/04 07:24:42;;;;;;;5.00;2.28;;;8.30;99.90;;;;;;4997489;28;20034;-63
2022/02/04 07:27:08;;;;;;;4.57;2.38;;;8.30;99.90;;;;;;5004634;28;20057;-62
2022/02/04 07:29:35;;;;;;;6.30;2.13;;;8.30;99.90;;;;;;5006408;28;20477;-63
2022/02/04 07:32:07;;;;;;;3.67;2.30;;;8.30;99.90;;;;;;5001426;28;20038;-62
2022/02/04 07:34:59;;;;;;;4.82;2.60;;;8.30;99.90;;;;;;5001549;28;20038;-61
2022/02/04 07:42:58;;;;;;;7.03;2.42;;;8.40;99.90;;;;;;5005167;28;20037;-61
2022/02/04 07:45:24;;;;;;;4.88;2.63;;;8.30;99.90;;;;;;5002975;28;20034;-62
2022/02/04 07:47:50;;;;;;;7.57;2.42;;;8.40;99.90;;;;;;5001114;28;20036;-61
2022/02/04 07:50:21;;;;;;;3.85;2.75;;;8.40;99.90;;;;;;4990856;28;20045;-62
2022/02/04 07:52:54;;;;;;;5.88;2.67;;;8.40;99.90;;;;;;4995506;28;20069;-61
2022/02/04 07:55:21;;;;;;;7.80;3.28;;;8.40;99.90;;;;;;4999500;28;20034;-63
2022/02/04 07:57:47;;;;;;;6.30;3.15;;;8.40;99.90;;;;;;4996764;28;20034;-62
2022/02/04 08:00:15;;;;;;;5.20;2.80;;;8.50;99.90;;;;;;4997420;28;20121;-61
2022/02/04 08:02:45;;;;;;;6.05;2.88;;;8.50;99.90;;;;;;4991981;28;20038;-60
2022/02/04 08:05:15;;;;;;;6.28;3.15;;;8.40;99.90;;;;;;4997896;28;20397;-61
2022/02/04 08:08:14;;;;;;;7.32;3.17;;;8.50;99.90;;;;;;5004340;28;20117;-61
2022/02/04 08:10:38;;;;;;;6.25;3.25;;;8.50;99.90;;;;;;4993436;28;20089;-62
2022/02/04 08:27:01;;;;;;;5.15;3.20;;;8.60;99.90;;;;;;4999389;28;20058;-61
2022/02/04 08:32:10;;;;;;;4.53;2.60;;;8.70;99.90;;;;;;4999783;28;20645;-62
2022/02/04 08:34:46;;;;;;;4.82;2.70;;;8.70;99.90;;;;;;4999112;28;20080;-63
2022/02/04 08:37:46;;;;;;;4.40;2.42;;;8.80;99.90;;;;;;5002133;28;20049;-63
2022/02/04 08:51:24;;;;;;;5.20;2.30;;;8.80;99.90;;;;;;4994593;28;20405;-62
2022/02/04 08:54:06;;;;;;;4.00;2.03;;;8.90;99.90;;;;;;4996025;28;20486;-63
2022/02/04 08:59:11;;;;;;;5.97;2.30;;;8.90;99.90;;;;;;5001608;28;20034;-60
2022/02/04 09:01:43;;;;;;;4.30;1.98;;;8.90;99.90;;;;;;4993850;28;20041;-62
2022/02/04 09:04:16;;;;;;;3.30;1.92;;;9.00;99.90;;;;;;4999600;28;20117;-63
2022/02/04 09:06:49;;;;;;;3.42;2.30;;;9.10;99.90;;;;;;4994518;28;20053;-63
2022/02/04 09:09:28;;;;;;;5.65;2.60;;;9.10;99.90;;;;;;4997325;28;20173;-62
2022/02/04 09:12:04;;;;;;;10.23;2.78;;;9.10;99.90;;;;;;4993621;28;20039;-61
2022/02/04 09:22:43;;;;;;;4.13;2.80;;;9.10;99.90;;;;;;4999413;28;20046;-62
2022/02/04 09:25:07;;;;;;;4.00;2.42;;;9.20;99.90;;;;;;4994360;28;20061;-62
2022/02/04 09:27:35;;;;;;;4.25;2.38;;;9.20;99.90;;;;;;4996372;28;20053;-62
2022/02/04 09:30:02;;;;;;;4.93;2.38;;;9.20;99.90;;;;;;4999586;28;20377;-62
2022/02/04 09:32:28;;;;;;;6.47;3.03;;;9.10;99.90;;;;;;4997053;28;20037;-60
2022/02/04 09:34:55;;;;;;;3.85;2.50;;;9.10;99.90;;;;;;4994346;28;20026;-63
2022/02/04 09:37:21;;;;;;;4.28;2.67;;;9.20;99.90;;;;;;4998488;28;20145;-62
2022/02/04 09:39:46;;;;;;;5.43;2.60;;;9.30;99.90;;;;;;4999662;28;20408;-62
2022/02/04 09:42:13;;;;;;;3.75;2.50;;;9.30;99.90;;;;;;5002025;28;20438;-63
2022/02/04 09:44:38;;;;;;;8.85;2.80;;;9.30;99.90;;;;;;4998943;28;20034;-61
2022/02/04 09:47:04;;;;;;;3.05;2.22;;;9.40;99.90;;;;;;5000505;28;20037;-61
2022/02/04 09:49:35;;;;;;;8.82;2.50;;;9.40;99.90;;;;;;4996511;28;20046;-61
2022/02/04 10:07:04;;;;;;;6.07;2.13;;;9.50;99.90;;;;;;4976251;28;20030;-63
2022/02/04 10:14:49;;;;;;;4.07;1.48;;;9.70;99.90;;;;;;4999578;28;20117;-62
2022/02/04 10:22:10;;;;;;;2.10;1.50;;;9.80;99.90;;;;;;5000279;28;20122;-63
2022/02/04 10:24:36;;;;;;;3.75;1.50;;;9.80;99.90;;;;;;5005323;28;20033;-62
2022/02/04 10:27:13;;;;;;;2.67;1.40;;;9.90;99.90;;;;;;5001727;28;20046;-61
2022/02/04 10:29:42;;;;;;;2.95;1.65;;;10.00;99.90;;;;;;4999952;28;20050;-62
2022/02/04 10:32:07;;;;;;;1.55;1.10;;;9.90;99.90;;;;;;5003337;28;20111;-63
2022/02/04 10:34:35;;;;;;;3.45;1.13;;;10.00;99.90;;;;;;5001419;28;20034;-61
2022/02/04 10:37:23;;;;;;;4.20;1.42;;;10.00;99.90;;;;;;4998315;28;20040;-62
2022/02/04 10:40:00;;;;;;;10.63;1.42;;;10.00;99.90;;;;;;5002133;28;20081;-63
2022/02/04 10:42:42;;;;;;;2.83;1.02;;;10.00;99.90;;;;;;5003612;28;20528;-61
2022/02/04 10:46:00;;;;;;;1.52;1.17;;;10.10;99.90;;;;;;4999642;28;20117;-62
2022/02/04 11:01:57;;;;;;;3.35;1.77;;;9.90;99.90;;;;;;4997814;28;20052;-61
2022/02/04 11:04:41;;;;;;;4.82;1.83;;;9.90;99.90;;;;;;5000009;28;20042;-63
2022/02/04 11:07:47;;;;;;;1.85;1.48;;;9.80;99.90;;;;;;4998229;28;20074;-61
2022/02/04 11:35:06;;;;;;;1.47;1.00;;;9.80;99.90;;;;;;4997737;28;20033;-63
2022/02/04 11:55:00;;;;;;;5.68;1.48;;;9.60;99.90;;;;;;4999902;28;20029;-63
2022/02/04 11:57:27;;;;;;;12.45;1.85;;;9.70;99.90;;;;;;4994072;28;20038;-62
2022/02/04 12:00:15;;;;;;;5.25;1.25;;;9.60;99.90;;;;;;5002143;28;20104;-63
2022/02/04 12:02:41;;;;;;;3.38;0.95;;;9.60;99.90;;;;;;4997622;28;20414;-62
2022/02/04 12:05:15;;;;;;;2.35;0.90;;;9.60;99.90;;;;;;5000667;28;20521;-61
2022/02/04 12:07:43;;;;;;;3.25;1.02;;;9.60;99.90;;;;;;5001726;28;20043;-62
2022/02/04 12:10:11;;;;;;;2.17;1.30;;;9.60;99.90;;;;;;5000516;28;20073;-64
2022/02/04 12:12:56;;;;;;;4.95;1.13;;;9.50;99.90;;;;;;5000957;28;20153;-61
2022/02/04 12:15:30;;;;;;;6.10;1.52;;;9.40;99.90;;;;;;5000303;28;20486;-62
2022/02/04 12:17:57;;;;;;;2.20;1.10;;;9.50;99.90;;;;;;5003605;28;20026;-61
2022/02/04 12:20:47;;;;;;;2.25;1.00;;;9.40;99.90;;;;;;4999988;28;20061;-61
2022/02/04 12:23:28;;;;;;;4.22;0.80;;;9.40;99.90;;;;;;5000521;28;20053;-62
2022/02/04 12:26:08;;;;;;;4.18;1.02;;;9.40;99.90;;;;;;4989558;28;20130;-62
2022/02/04 12:28:50;;;;;;;3.08;1.70;;;9.30;99.90;;;;;;4997557;28;20894;-63
2022/02/04 12:31:24;;;;;;;3.03;0.80;;;9.20;99.90;;;;;;4999095;28;20084;-61
2022/02/04 12:34:07;;;;;;;3.47;0.85;;;9.30;99.90;;;;;;5002427;28;20397;-61
2022/02/04 12:36:51;;;;;;;2.78;1.10;;;9.30;99.90;;;;;;4996791;28;20542;-63
2022/02/04 12:39:25;;;;;;;4.10;1.15;;;9.20;99.90;;;;;;4998732;28;20160;-61
2022/02/04 12:41:52;;;;;;;6.85;1.73;;;9.20;99.90;;;;;;5001788;28;20057;-61
2022/02/04 12:44:21;;;;;;;5.13;1.35;;;9.10;99.90;;;;;;4993337;28;20179;-62
2022/02/04 12:46:49;;;;;;;4.00;1.80;;;8.90;99.90;;;;;;4998279;28;20493;-61
2022/02/04 12:49:17;;;;;;;3.10;1.65;;;8.80;99.90;;;;;;4999731;28;20125;-62
2022/02/04 12:51:52;;;;;;;3.00;1.23;;;8.60;99.90;;;;;;4999134;28;20192;-62
2022/02/04 12:54:35;;;;;;;2.67;1.30;;;8.50;99.90;;;;;;4998860;28;20038;-64
2022/02/04 12:57:28;;;;;;;4.93;1.42;;;8.40;99.90;;;;;;4995521;28;20066;-62
2022/02/04 13:08:37;;;;;;;5.35;1.58;;;8.10;99.90;;;;;;5001454;28;20092;-61
2022/02/04 13:11:09;;;;;;;3.75;1.77;;;8.10;99.90;;;;;;4996670;28;20454;-60
2022/02/04 13:13:45;;;;;;;3.42;1.35;;;8.00;99.90;;;;;;4999687;28;20036;-61
2022/02/04 13:16:24;;;;;;;7.03;2.45;;;8.00;99.90;;;;;;4998823;28;20051;-62
2022/02/04 13:18:51;;;;;;;3.33;1.70;;;8.00;99.90;;;;;;4993186;28;20038;-61
2022/02/04 13:21:17;;;;;;;5.28;1.55;;;8.00;99.90;;;;;;5000166;28;20117;-61
2022/02/04 13:23:43;;;;;;;3.35;1.75;;;8.00;99.90;;;;;;4997977;28;20519;-61
2022/02/04 13:26:09;;;;;;;2.88;1.55;;;8.00;99.90;;;;;;5000365;28;20125;-61
2022/02/04 13:28:40;;;;;;;6.20;1.73;;;8.00;99.90;;;;;;5000201;28;20371;-61
2022/02/04 13:31:13;;;;;;;3.22;1.55;;;7.90;99.90;;;;;;4998399;28;20141;-61
2022/02/04 13:33:38;;;;;;;6.97;1.80;;;7.90;99.90;;;;;;4999875;28;20034;-61
2022/02/04 13:38:51;;;;;;;2.03;0.60;;;7.70;99.90;;;;;;5000097;28;20291;-61
2022/02/04 13:44:37;;;;;;;5.63;0.22;;;6.70;99.90;;;;;;4998162;28;20580;-62
2022/02/04 13:47:42;;;;;;;2.40;0.60;;;6.40;99.90;;;;;;5000648;28;20054;-61
2022/02/04 14:03:30;;;;;;;2.72;0.20;;;5.50;99.90;;;;;;4990470;28;20406;-61
2022/02/04 14:06:07;;;;;;;0.75;0.10;;;5.40;99.90;;;;;;4999002;28;20573;-60
2022/02/04 14:08:52;;;;;;;0.98;0.10;;;5.20;99.90;;;;;;5003999;28;20038;-62
2022/02/04 14:11:41;;;;;;;0.50;0.10;;;5.00;99.90;;;;;;4997306;28;20054;-60
2022/02/04 14:14:21;;;;;;;0.75;0.00;;;5.00;99.90;;;;;;5003753;28;20046;-60
2022/02/04 14:16:54;;;;;;;6.45;1.13;;;4.90;99.90;;;;;;5000414;28;20035;-60
2022/02/04 14:19:20;;;;;;;2.63;0.10;;;4.90;99.90;;;;;;4998951;28;20034;-61
2022/02/04 14:21:46;;;;;;;0.60;0.03;;;4.90;99.90;;;;;;5005785;28;20045;-60
2022/02/04 14:24:13;;;;;;;2.10;0.00;;;4.90;99.90;;;;;;4996211;28;20042;-60
2022/02/04 14:26:44;;;;;;;2.55;0.40;;;4.80;99.90;;;;;;5004371;28;20034;-60
2022/02/04 14:29:16;;;;;;;0.30;0.00;;;4.80;99.90;;;;;;5002730;28;20397;-60
2022/02/04 14:53:11;;;;;;;3.90;0.10;;;4.80;99.90;;;;;;5002060;28;20053;-61
2022/02/04 15:03:39;;;;;;;1.85;0.10;;;4.90;99.90;;;;;;5000995;28;20402;-59
2022/02/04 15:06:13;;;;;;;0.10;0.00;;;4.90;99.90;;;;;;5000738;28;20478;-59
2022/02/04 15:08:40;;;;;;;0.77;0.10;;;4.90;99.90;;;;;;5000930;28;20045;-60
2022/02/04 15:11:16;;;;;;;0.90;0.10;;;4.90;99.90;;;;;;5001250;28;20034;-61
2022/02/04 15:13:42;;;;;;;0.40;0.10;;;5.00;99.90;;;;;;5003870;28;20390;-60
2022/02/04 15:16:09;;;;;;;0.13;0.00;;;5.00;99.90;;;;;;5003848;28;20034;-60
2022/02/04 15:18:40;;;;;;;1.90;0.73;;;5.00;99.90;;;;;;5002264;28;20114;-61
2022/02/04 15:21:12;;;;;;;1.55;0.63;;;4.90;99.90;;;;;;5002195;28;20332;-60
2022/02/04 15:23:39;;;;;;;0.50;0.10;;;4.90;99.90;;;;;;5002458;28;20034;-60
2022/02/04 15:26:06;;;;;;;0.95;0.20;;;4.80;99.90;;;;;;5002451;28;20037;-60
2022/02/04 15:28:39;;;;;;;0.70;0.28;;;4.80;99.90;;;;;;5002776;28;20449;-60
2022/02/04 15:31:09;;;;;;;2.78;0.28;;;4.80;99.90;;;;;;4995696;28;20042;-60
2022/02/04 15:33:36;;;;;;;4.45;0.43;;;4.80;99.90;;;;;;4996035;28;20047;-61
2022/02/04 15:36:02;;;;;;;2.17;0.38;;;4.80;99.90;;;;;;4999024;28;20062;-61
2022/02/04 15:38:29;;;;;;;0.45;0.00;;;4.80;99.90;;;;;;5001466;28;20045;-61
2022/02/04 15:40:55;;;;;;;1.23;0.40;;;4.80;99.90;;;;;;4998089;28;20383;-62
2022/02/04 15:43:20;;;;;;;3.63;0.77;;;4.80;99.90;;;;;;5002876;28;20030;-61
2022/02/04 15:59:21;;;;;;;2.42;0.38;;;4.80;99.90;;;;;;5000195;28;20067;-61
2022/02/04 16:04:33;;;;;;;3.65;0.50;;;4.70;99.90;;;;;;4999029;28;20040;-60
2022/02/04 16:06:58;;;;;;;0.98;0.10;;;4.70;99.90;;;;;;4998909;28;20049;-62
2022/02/04 16:09:25;;;;;;;2.65;0.20;;;4.60;99.90;;;;;;4997858;28;20406;-61
2022/02/04 16:16:52;;;;;;;0.90;0.20;;;4.60;99.90;;;;;;4998244;28;20125;-61
2022/02/04 16:27:10;;;;;;;5.28;1.17;;;4.70;99.90;;;;;;4998346;28;20441;-60
2022/02/04 16:29:43;;;;;;;2.08;0.30;;;4.70;99.90;;;;;;4997807;28;20041;-61
2022/02/04 16:32:09;;;;;;;2.03;0.40;;;4.70;99.90;;;;;;4997949;28;20061;-62
2022/02/04 16:34:35;;;;;;;6.82;1.20;;;4.70;99.90;;;;;;5002196;28;20058;-62
2022/02/04 16:37:15;;;;;;;4.38;0.50;;;4.70;99.90;;;;;;5000801;28;20037;-61
2022/02/04 16:39:41;;;;;;;4.55;0.75;;;4.70;99.90;;;;;;4995272;28;20404;-61
2022/02/04 16:42:14;;;;;;;1.60;0.25;;;4.70;99.90;;;;;;5005462;28;20088;-60
2022/02/04 16:44:41;;;;;;;5.95;0.88;;;4.80;99.90;;;;;;4993978;28;20034;-61
2022/02/04 16:47:07;;;;;;;2.85;0.30;;;4.70;99.90;;;;;;4997937;28;20718;-60
2022/02/04 16:49:34;;;;;;;4.20;0.80;;;4.70;99.90;;;;;;5001340;28;20497;-61
2022/02/04 16:52:01;;;;;;;7.13;2.08;;;4.60;99.90;;;;;;5000529;28;20095;-59
2022/02/04 16:54:28;;;;;;;5.03;0.57;;;4.60;99.90;;;;;;5000821;28;20046;-60
2022/02/04 16:56:55;;;;;;;4.85;0.65;;;4.50;99.90;;;;;;4999392;28;20038;-62
2022/02/04 16:59:21;;;;;;;8.00;1.85;;;4.50;99.90;;;;;;5000033;28;20035;-60
2022/02/04 17:01:46;;;;;;;1.67;0.50;;;4.40;99.90;;;;;;5001494;28;20521;-61
2022/02/04 17:04:13;;;;;;;8.38;1.10;;;4.30;99.90;;;;;;4998485;28;20125;-61
2022/02/04 17:06:40;;;;;;;4.45;1.73;;;4.30;99.90;;;;;;4998026;28;20069;-60
2022/02/04 17:11:47;;;;;;;6.43;1.30;;;4.20;99.90;;;;;;4998514;28;20105;-60
2022/02/04 17:14:14;;;;;;;6.45;2.10;;;4.20;99.90;;;;;;4995358;28;20525;-61
2022/02/04 17:16:43;;;;;;;5.40;1.42;;;4.20;99.90;;;;;;5002022;28;20033;-61
2022/02/04 17:19:10;;;;;;;4.95;1.05;;;4.20;99.90;;;;;;4995292;28;20723;-60
2022/02/04 17:21:37;;;;;;;6.13;1.02;;;4.30;99.90;;;;;;5000688;28;20050;-62
2022/02/04 17:24:02;;;;;;;8.30;1.83;;;4.30;99.90;;;;;;4997628;28;20031;-60
2022/02/04 17:26:28;;;;;;;5.53;1.45;;;4.30;99.90;;;;;;4997516;28;20041;-61
2022/02/04 17:28:54;;;;;;;8.05;1.40;;;4.20;99.90;;;;;;5000319;28;20030;-62
2022/02/04 17:31:20;;;;;;;10.38;1.40;;;4.20;99.90;;;;;;4998944;28;20037;-60
2022/02/04 17:33:46;;;;;;;13.25;1.55;;;4.20;99.90;;;;;;4999145;28;20042;-61
2022/02/04 17:36:12;;;;;;;9.55;1.90;;;4.10;99.90;;;;;;5001449;28;20040;-62
2022/02/04 17:38:39;;;;;;;6.78;1.75;;;4.10;99.90;;;;;;5001697;28;20116;-61
2022/02/04 17:41:08;;;;;;;7.30;2.08;;;4.10;99.90;;;;;;4998060;28;20038;-61
2022/02/04 17:43:33;;;;;;;10.63;1.73;;;4.10;99.90;;;;;;4998186;28;20042;-60
2022/02/04 17:45:59;;;;;;;6.32;1.50;;;4.20;99.90;;;;;;5000778;28;20161;-61
2022/02/04 17:48:33;;;;;;;13.80;2.00;;;4.30;99.90;;;;;;5001660;28;20117;-61
2022/02/04 17:51:12;;;;;;;4.28;1.23;;;4.40;99.90;;;;;;5000299;28;20046;-62
2022/02/04 17:53:54;;;;;;;19.90;2.67;;;4.40;99.90;;;;;;4995194;28;20409;-60
2022/02/04 18:07:22;;;;;;;6.13;1.58;;;4.40;99.90;;;;;;4998740;28;20117;-61
2022/02/04 18:09:47;;;;;;;8.75;1.63;;;4.40;99.90;;;;;;4996541;28;20402;-63
2022/02/04 18:12:16;;;;;;;6.95;1.50;;;4.50;99.90;;;;;;4999845;28;20031;-60
2022/02/04 18:14:43;;;;;;;7.40;1.30;;;4.60;99.90;;;;;;4995799;28;20509;-60
2022/02/04 18:17:09;;;;;;;13.30;1.60;;;4.60;99.90;;;;;;5001119;28;20026;-61
2022/02/04 18:19:37;;;;;;;10.68;2.72;;;4.60;99.90;;;;;;4996364;28;20034;-61
2022/02/04 18:22:03;;;;;;;12.52;1.95;;;4.50;99.90;;;;;;4997805;28;20030;-62
2022/02/04 18:24:28;;;;;;;10.68;2.13;;;4.50;99.90;;;;;;5000034;28;20404;-61
2022/02/04 18:26:54;;;;;;;6.95;1.73;;;4.50;99.90;;;;;;4999467;28;20065;-60
2022/02/04 18:29:20;;;;;;;13.50;2.90;;;4.60;99.90;;;;;;4999569;28;20035;-60
2022/02/04 18:31:46;;;;;;;12.45;2.60;;;4.70;99.90;;;;;;5000045;28;20136;-61
2022/02/04 18:34:14;;;;;;;14.40;1.70;;;4.70;99.90;;;;;;4998754;28;20038;-62
2022/02/04 18:36:40;;;;;;;12.35;2.60;;;4.70;99.90;;;;;;4999162;28;20036;-61
2022/02/04 18:39:28;;;;;;;10.95;2.40;;;4.80;99.90;;;;;;4997921;28;20038;-61
2022/02/04 18:44:27;;;;;;;13.38;2.47;;;4.90;99.90;;;;;;5001674;28;20092;-61
2022/02/04 18:46:58;;;;;;;11.70;2.00;;;4.90;99.90;;;;;;5003919;28;20137;-61
2022/02/04 18:49:29;;;;;;;8.85;2.53;;;4.90;99.90;;;;;;5002006;28;20118;-60
2022/02/04 18:52:21;;;;;;;10.20;2.70;;;4.90;99.90;;;;;;5003669;28;20058;-61
2022/02/04 18:55:38;;;;;;;9.07;2.15;;;4.90;99.90;;;;;;5000303;28;20069;-61
2022/02/04 18:57:47;;;;;;;15.90;4.20;;;5.00;99.90;;;;;;5000377;28;20398;-60
2022/02/04 19:00:17;;;;;;;15.60;2.03;;;5.00;99.90;;;;;;4999480;28;20030;-61
2022/02/04 19:02:44;;;;;;;16.17;2.42;;;5.00;99.90;;;;;;5002078;28;20485;-60
2022/02/04 19:05:16;;;;;;;10.15;2.10;;;5.00;99.90;;;;;;5002576;28;20528;-62
2022/02/04 19:07:56;;;;;;;13.13;3.70;;;5.00;99.90;;;;;;5001479;28;20076;-61
2022/02/04 19:10:21;;;;;;;10.80;2.90;;;5.00;99.90;;;;;;5002602;28;20034;-62
2022/02/04 19:12:55;;;;;;;11.70;2.58;;;5.10;99.90;;;;;;5003052;28;20057;-61
2022/02/04 19:18:07;;;;;;;13.70;2.85;;;5.20;99.90;;;;;;5001443;28;20655;-60
2022/02/04 19:20:41;;;;;;;9.57;1.80;;;5.20;99.90;;;;;;4997140;28;20041;-62
2022/02/04 19:23:10;;;;;;;5.68;1.98;;;5.20;99.90;;;;;;4998215;28;20034;-60
2022/02/04 19:25:39;;;;;;;10.27;2.30;;;5.20;99.90;;;;;;5004080;28;20706;-61
2022/02/04 19:28:07;;;;;;;5.53;1.42;;;5.30;99.90;;;;;;5001221;28;20114;-60
2022/02/04 19:30:35;;;;;;;5.28;1.63;;;5.30;99.90;;;;;;5002483;28;20037;-61
2022/02/04 19:33:00;;;;;;;6.53;1.70;;;5.30;99.90;;;;;;4996582;28;20371;-60
2022/02/04 19:35:26;;;;;;;9.95;1.60;;;5.30;99.90;;;;;;5000653;28;20030;-60
2022/02/04 19:37:53;;;;;;;13.15;1.92;;;5.30;99.90;;;;;;5000759;28;20038;-61
2022/02/04 19:40:19;;;;;;;6.22;1.77;;;5.30;99.90;;;;;;5000951;28;20027;-60
2022/02/04 19:42:48;;;;;;;10.85;1.92;;;5.30;99.90;;;;;;5003976;28;20045;-61
2022/02/04 19:45:20;;;;;;;4.75;1.75;;;5.20;99.90;;;;;;5002693;28;20113;-60
2022/02/04 19:47:51;;;;;;;12.52;3.40;;;5.10;99.90;;;;;;5001726;28;20062;-62
2022/02/04 20:23:31;;;;;;;4.15;1.08;;;5.20;99.90;;;;;;5003526;28;20116;-60
2022/02/04 20:25:27;;;;;;;14.48;1.83;;;5.30;99.90;;;;;;4996740;28;20089;-60
2022/02/04 20:27:59;;;;;;;8.05;1.38;;;5.30;99.90;;;;;;5002997;28;20397;-61
2022/02/04 20:30:24;;;;;;;7.75;0.82;;;5.30;99.90;;;;;;4993411;28;20031;-60